sensor_id;sensor_type;location;lat;lon;timestamp;pressure;altitude;pressure_sealevel;temperature;humidity
75767;BME280;64378;55.596;13.014;2022-12-29T00:01:05;99916.47;;;19.97;37.82
75767;BME280;64378;55.596;13.014;2022-12-29T00:03:30;99919.22;;;19.97;37.93
75767;BME280;64378;55.596;13.014;2022-12-29T00:05:56;99923.63;;;19.98;37.94
75767;BME280;64378;55.596;13.014;2022-12-29T00:08:22;99922.78;;;19.97;37.75
75767;BME280;64378;55.596;13.014;2022-12-29T00:11:07;99915.66;;;19.96;37.90
75767;BME280;64378;55.596;13.014;2022-12-29T00:13:34;99920.03;;;19.97;38.02
75767;BME280;64378;55.596;13.014;2022-12-29T00:16:17;99919.22;;;19.97;37.88
75767;BME280;64378;55.596;13.014;2022-12-29T00:18:43;99918.16;;;19.98;38.07
75767;BME280;64378;55.596;13.014;2022-12-29T00:21:14;99911.00;;;19.97;38.00
75767;BME280;64378;55.596;13.014;2022-12-29T00:23:58;99904.44;;;19.98;37.82
75767;BME280;64378;55.596;13.014;2022-12-29T00:27:11;99900.03;;;19.97;37.94
75767;BME280;64378;55.596;13.014;2022-12-29T00:29:56;99905.53;;;19.97;37.76
75767;BME280;64378;55.596;13.014;2022-12-29T00:32:40;99904.44;;;19.98;37.85
75767;BME280;64378;55.596;13.014;2022-12-29T00:35:25;99889.94;;;19.97;37.78
75767;BME280;64378;55.596;13.014;2022-12-29T00:37:52;99882.53;;;19.98;37.82
75767;BME280;64378;55.596;13.014;2022-12-29T00:40:37;99879.81;;;19.98;37.61
75767;BME280;64378;55.596;13.014;2022-12-29T00:43:21;99866.13;;;19.98;37.67
75767;BME280;64378;55.596;13.014;2022-12-29T00:46:05;99874.59;;;19.96;37.82
75767;BME280;64378;55.596;13.014;2022-12-29T00:48:30;99867.19;;;19.97;37.71
75767;BME280;64378;55.596;13.014;2022-12-29T00:51:14;99874.34;;;19.98;37.90
75767;BME280;64378;55.596;13.014;2022-12-29T00:53:39;99860.63;;;19.98;37.90
75767;BME280;64378;55.596;13.014;2022-12-29T00:56:05;99871.03;;;19.96;37.80
75767;BME280;64378;55.596;13.014;2022-12-29T00:58:30;99856.22;;;19.97;37.90
75767;BME280;64378;55.596;13.014;2022-12-29T01:01:07;99864.44;;;19.97;37.77
75767;BME280;64378;55.596;13.014;2022-12-29T01:03:34;99845.28;;;19.97;37.94
75767;BME280;64378;55.596;13.014;2022-12-29T01:06:01;99857.34;;;19.96;38.19
75767;BME280;64378;55.596;13.014;2022-12-29T01:08:27;99849.69;;;19.98;37.70
75767;BME280;64378;55.596;13.014;2022-12-29T01:11:00;99848.03;;;19.97;38.08
75767;BME280;64378;55.596;13.014;2022-12-29T01:13:26;99841.75;;;19.96;37.74
75767;BME280;64378;55.596;13.014;2022-12-29T01:15:52;99835.16;;;19.97;37.98
75767;BME280;64378;55.596;13.014;2022-12-29T01:18:18;99826.13;;;19.97;38.04
75767;BME280;64378;55.596;13.014;2022-12-29T01:20:43;99824.47;;;19.96;38.07
75767;BME280;64378;55.596;13.014;2022-12-29T01:23:09;99826.94;;;19.97;37.98
75767;BME280;64378;55.596;13.014;2022-12-29T01:25:34;99814.34;;;19.96;37.95
75767;BME280;64378;55.596;13.014;2022-12-29T01:27:59;99819.84;;;19.96;37.79
75767;BME280;64378;55.596;13.014;2022-12-29T01:30:25;99816.00;;;19.97;37.98
75767;BME280;64378;55.596;13.014;2022-12-29T01:32:50;99810.53;;;19.97;37.98
75767;BME280;64378;55.596;13.014;2022-12-29T01:35:15;99809.69;;;19.97;37.99
75767;BME280;64378;55.596;13.014;2022-12-29T01:37:41;99800.41;;;19.98;37.98
75767;BME280;64378;55.596;13.014;2022-12-29T01:40:06;99803.13;;;19.98;37.91
75767;BME280;64378;55.596;13.014;2022-12-29T01:42:32;99801.22;;;19.98;37.83
75767;BME280;64378;55.596;13.014;2022-12-29T01:45:00;99801.22;;;19.98;37.97
75767;BME280;64378;55.596;13.014;2022-12-29T01:47:39;99790.28;;;19.98;38.03
75767;BME280;64378;55.596;13.014;2022-12-29T01:50:12;99783.97;;;19.98;37.88
75767;BME280;64378;55.596;13.014;2022-12-29T01:52:49;99785.59;;;19.99;38.00
75767;BME280;64378;55.596;13.014;2022-12-29T01:55:17;99781.75;;;20.00;37.83
75767;BME280;64378;55.596;13.014;2022-12-29T01:57:46;99776.28;;;20.00;37.81
75767;BME280;64378;55.596;13.014;2022-12-29T02:00:14;99774.66;;;19.99;37.83
75767;BME280;64378;55.596;13.014;2022-12-29T02:02:47;99763.69;;;19.99;37.88
75767;BME280;64378;55.596;13.014;2022-12-29T02:05:28;99765.63;;;19.98;37.81
75767;BME280;64378;55.596;13.014;2022-12-29T02:07:57;99755.50;;;19.99;37.83
75767;BME280;64378;55.596;13.014;2022-12-29T02:10:26;99751.13;;;19.98;37.97
75767;BME280;64378;55.596;13.014;2022-12-29T02:12:52;99747.28;;;19.99;37.98
75767;BME280;64378;55.596;13.014;2022-12-29T02:15:23;99741.78;;;19.99;38.11
75767;BME280;64378;55.596;13.014;2022-12-29T02:31:29;99713.31;;;20.00;37.92
75767;BME280;64378;55.596;13.014;2022-12-29T02:37:00;99710.03;;;19.98;37.94
75767;BME280;64378;55.596;13.014;2022-12-29T02:39:34;99703.47;;;19.99;37.90
75767;BME280;64378;55.596;13.014;2022-12-29T02:45:02;99694.44;;;19.98;38.01
75767;BME280;64378;55.596;13.014;2022-12-29T02:47:36;99698.81;;;19.99;38.00
75767;BME280;64378;55.596;13.014;2022-12-29T02:50:11;99690.59;;;19.99;38.04
75767;BME280;64378;55.596;13.014;2022-12-29T02:52:45;99684.28;;;19.99;38.08
75767;BME280;64378;55.596;13.014;2022-12-29T02:55:12;99683.19;;;20.00;38.15
75767;BME280;64378;55.596;13.014;2022-12-29T02:57:37;99687.03;;;19.99;37.91
75767;BME280;64378;55.596;13.014;2022-12-29T03:00:16;99685.94;;;20.00;37.98
75767;BME280;64378;55.596;13.014;2022-12-29T03:05:25;99677.72;;;20.00;38.11
75767;BME280;64378;55.596;13.014;2022-12-29T03:10:55;99659.66;;;19.99;37.88
75767;BME280;64378;55.596;13.014;2022-12-29T03:13:30;99667.88;;;19.99;37.97
75767;BME280;64378;55.596;13.014;2022-12-29T03:16:26;99658.84;;;19.98;38.23
75767;BME280;64378;55.596;13.014;2022-12-29T03:21:51;99656.91;;;19.99;38.32
75767;BME280;64378;55.596;13.014;2022-12-29T03:24:40;99651.44;;;19.99;38.06
75767;BME280;64378;55.596;13.014;2022-12-29T03:27:10;99647.91;;;19.98;38.03
75767;BME280;64378;55.596;13.014;2022-12-29T03:29:40;99645.97;;;19.99;38.13
75767;BME280;64378;55.596;13.014;2022-12-29T03:32:09;99642.44;;;19.98;37.94
75767;BME280;64378;55.596;13.014;2022-12-29T03:34:37;99653.38;;;19.98;38.06
75767;BME280;64378;55.596;13.014;2022-12-29T03:37:11;99648.69;;;19.99;38.17
75767;BME280;64378;55.596;13.014;2022-12-29T03:39:37;99645.16;;;19.98;38.14
75767;BME280;64378;55.596;13.014;2022-12-29T03:42:06;99641.59;;;19.98;38.10
75767;BME280;64378;55.596;13.014;2022-12-29T03:44:39;99643.22;;;19.99;38.06
75767;BME280;64378;55.596;13.014;2022-12-29T03:47:06;99647.59;;;20.00;38.07
75767;BME280;64378;55.596;13.014;2022-12-29T03:49:32;99635.84;;;19.99;38.17
75767;BME280;64378;55.596;13.014;2022-12-29T03:51:58;99621.31;;;19.99;38.04
75767;BME280;64378;55.596;13.014;2022-12-29T03:54:24;99617.78;;;19.98;38.03
75767;BME280;64378;55.596;13.014;2022-12-29T03:56:50;99615.03;;;19.98;38.05
75767;BME280;64378;55.596;13.014;2022-12-29T03:59:16;99619.41;;;19.99;38.08
75767;BME280;64378;55.596;13.014;2022-12-29T04:01:41;99606.00;;;19.98;38.11
75767;BME280;64378;55.596;13.014;2022-12-29T04:04:06;99605.72;;;19.99;37.87
75767;BME280;64378;55.596;13.014;2022-12-29T04:06:32;99609.56;;;19.98;38.00
75767;BME280;64378;55.596;13.014;2022-12-29T04:08:57;99600.53;;;19.98;38.13
75767;BME280;64378;55.596;13.014;2022-12-29T04:11:23;99604.09;;;19.98;38.02
75767;BME280;64378;55.596;13.014;2022-12-29T04:13:48;99602.97;;;19.99;38.15
75767;BME280;64378;55.596;13.014;2022-12-29T04:16:14;99594.78;;;19.99;37.91
75767;BME280;64378;55.596;13.014;2022-12-29T04:18:39;99600.25;;;19.99;38.14
75767;BME280;64378;55.596;13.014;2022-12-29T04:21:05;99610.38;;;19.99;38.00
75767;BME280;64378;55.596;13.014;2022-12-29T04:23:33;99612.31;;;19.98;38.18
75767;BME280;64378;55.596;13.014;2022-12-29T04:25:59;99606.81;;;19.98;38.01
75767;BME280;64378;55.596;13.014;2022-12-29T04:28:24;99611.47;;;19.98;37.99
75767;BME280;64378;55.596;13.014;2022-12-29T04:30:50;99607.63;;;19.99;38.13
75767;BME280;64378;55.596;13.014;2022-12-29T04:33:15;99615.03;;;19.98;38.07
75767;BME280;64378;55.596;13.014;2022-12-29T04:35:42;99614.75;;;20.00;37.97
75767;BME280;64378;55.596;13.014;2022-12-29T04:38:08;99628.44;;;20.00;38.14
75767;BME280;64378;55.596;13.014;2022-12-29T04:40:33;99619.09;;;20.01;38.09
75767;BME280;64378;55.596;13.014;2022-12-29T04:42:58;99599.94;;;20.01;38.06
75767;BME280;64378;55.596;13.014;2022-12-29T04:45:24;99602.69;;;20.01;37.95
75767;BME280;64378;55.596;13.014;2022-12-29T04:47:49;99599.13;;;20.00;38.20
75767;BME280;64378;55.596;13.014;2022-12-29T04:50:15;99603.78;;;20.00;38.07
75767;BME280;64378;55.596;13.014;2022-12-29T04:52:40;99597.50;;;19.99;38.13
75767;BME280;64378;55.596;13.014;2022-12-29T04:55:06;99596.69;;;19.99;38.00
75767;BME280;64378;55.596;13.014;2022-12-29T04:57:32;99594.78;;;19.99;38.19
75767;BME280;64378;55.596;13.014;2022-12-29T04:59:57;99601.03;;;20.00;37.99
75767;BME280;64378;55.596;13.014;2022-12-29T05:02:23;99593.94;;;19.99;38.07
75767;BME280;64378;55.596;13.014;2022-12-29T05:04:48;99588.47;;;19.99;38.25
75767;BME280;64378;55.596;13.014;2022-12-29T05:07:14;99595.56;;;20.00;37.90
75767;BME280;64378;55.596;13.014;2022-12-29T05:09:39;99595.56;;;20.00;38.20
75767;BME280;64378;55.596;13.014;2022-12-29T05:12:05;99591.19;;;19.99;38.09
75767;BME280;64378;55.596;13.014;2022-12-29T05:14:30;99573.97;;;19.98;38.17
75767;BME280;64378;55.596;13.014;2022-12-29T05:16:56;99570.13;;;19.99;38.07
75767;BME280;64378;55.596;13.014;2022-12-29T05:19:21;99575.59;;;19.99;38.14
75767;BME280;64378;55.596;13.014;2022-12-29T05:21:47;99579.97;;;20.00;38.00
75767;BME280;64378;55.596;13.014;2022-12-29T05:24:12;99574.50;;;20.00;38.09
75767;BME280;64378;55.596;13.014;2022-12-29T05:26:38;99567.88;;;20.01;38.07
75767;BME280;64378;55.596;13.014;2022-12-29T05:29:03;99566.28;;;20.00;38.06
75767;BME280;64378;55.596;13.014;2022-12-29T05:31:29;99572.88;;;19.99;38.20
75767;BME280;64378;55.596;13.014;2022-12-29T05:33:54;99560.81;;;20.00;38.15
75767;BME280;64378;55.596;13.014;2022-12-29T05:36:19;99561.09;;;19.99;38.20
75767;BME280;64378;55.596;13.014;2022-12-29T05:38:45;99567.38;;;19.99;38.09
75767;BME280;64378;55.596;13.014;2022-12-29T05:41:10;99568.50;;;19.98;38.20
75767;BME280;64378;55.596;13.014;2022-12-29T05:43:35;99570.94;;;20.00;38.14
75767;BME280;64378;55.596;13.014;2022-12-29T05:46:01;99559.19;;;19.99;38.24
75767;BME280;64378;55.596;13.014;2022-12-29T05:48:27;99566.28;;;20.00;38.22
75767;BME280;64378;55.596;13.014;2022-12-29T05:50:53;99558.88;;;20.01;38.23
75767;BME280;64378;55.596;13.014;2022-12-29T05:53:18;99551.47;;;20.01;38.25
75767;BME280;64378;55.596;13.014;2022-12-29T05:55:45;99551.75;;;20.00;38.23
75767;BME280;64378;55.596;13.014;2022-12-29T05:58:11;99547.91;;;20.01;38.27
75767;BME280;64378;55.596;13.014;2022-12-29T06:00:37;99547.91;;;20.01;38.29
75767;BME280;64378;55.596;13.014;2022-12-29T06:03:02;99545.19;;;20.01;38.22
75767;BME280;64378;55.596;13.014;2022-12-29T06:05:27;99540.50;;;20.01;38.07
75767;BME280;64378;55.596;13.014;2022-12-29T06:07:53;99549.56;;;20.02;38.26
75767;BME280;64378;55.596;13.014;2022-12-29T06:10:18;99544.06;;;20.02;38.32
75767;BME280;64378;55.596;13.014;2022-12-29T06:12:43;99544.06;;;20.02;38.24
75767;BME280;64378;55.596;13.014;2022-12-29T06:15:09;99538.59;;;20.02;38.16
75767;BME280;64378;55.596;13.014;2022-12-29T06:17:35;99537.75;;;20.01;38.29
75767;BME280;64378;55.596;13.014;2022-12-29T06:20:00;99543.25;;;20.01;38.36
75767;BME280;64378;55.596;13.014;2022-12-29T06:22:26;99544.88;;;20.02;38.14
75767;BME280;64378;55.596;13.014;2022-12-29T06:24:51;99544.06;;;20.02;38.32
75767;BME280;64378;55.596;13.014;2022-12-29T06:27:17;99546.81;;;20.02;38.35
75767;BME280;64378;55.596;13.014;2022-12-29T06:29:42;99548.13;;;20.04;38.12
75767;BME280;64378;55.596;13.014;2022-12-29T06:32:08;99549.56;;;20.02;38.13
75767;BME280;64378;55.596;13.014;2022-12-29T06:34:34;99540.22;;;20.03;38.15
75767;BME280;64378;55.596;13.014;2022-12-29T06:36:59;99541.34;;;20.02;38.14
75767;BME280;64378;55.596;13.014;2022-12-29T06:39:24;99542.97;;;20.03;38.26
75767;BME280;64378;55.596;13.014;2022-12-29T06:41:53;99545.97;;;20.01;38.12
75767;BME280;64378;55.596;13.014;2022-12-29T06:44:22;99531.19;;;20.02;38.19
75767;BME280;64378;55.596;13.014;2022-12-29T06:46:47;99538.28;;;20.03;38.27
75767;BME280;64378;55.596;13.014;2022-12-29T06:49:13;99527.34;;;20.03;38.31
75767;BME280;64378;55.596;13.014;2022-12-29T06:51:39;99532.81;;;20.03;38.41
75767;BME280;64378;55.596;13.014;2022-12-29T06:54:04;99525.44;;;20.04;38.38
75767;BME280;64378;55.596;13.014;2022-12-29T06:56:30;99523.81;;;20.03;38.38
75767;BME280;64378;55.596;13.014;2022-12-29T06:58:55;99531.19;;;20.02;38.30
75767;BME280;64378;55.596;13.014;2022-12-29T07:01:20;99522.97;;;20.02;38.21
75767;BME280;64378;55.596;13.014;2022-12-29T07:03:48;99519.13;;;20.03;38.25
75767;BME280;64378;55.596;13.014;2022-12-29T07:06:13;99522.97;;;20.02;38.18
75767;BME280;64378;55.596;13.014;2022-12-29T07:08:39;99524.91;;;20.02;38.34
75767;BME280;64378;55.596;13.014;2022-12-29T07:11:05;99517.50;;;20.02;38.32
75767;BME280;64378;55.596;13.014;2022-12-29T07:13:30;99519.13;;;20.03;38.39
75767;BME280;64378;55.596;13.014;2022-12-29T07:15:56;99521.88;;;20.03;38.23
75767;BME280;64378;55.596;13.014;2022-12-29T07:18:21;99516.13;;;20.05;38.40
75767;BME280;64378;55.596;13.014;2022-12-29T07:20:46;99513.66;;;20.03;38.24
75767;BME280;64378;55.596;13.014;2022-12-29T07:23:12;99512.00;;;20.02;38.18
75767;BME280;64378;55.596;13.014;2022-12-29T07:25:37;99521.88;;;20.03;38.22
75767;BME280;64378;55.596;13.014;2022-12-29T07:28:03;99515.59;;;20.03;38.31
75767;BME280;64378;55.596;13.014;2022-12-29T07:30:29;99504.63;;;20.03;38.31
75767;BME280;64378;55.596;13.014;2022-12-29T07:32:54;99510.09;;;20.03;38.16
75767;BME280;64378;55.596;13.014;2022-12-29T07:35:19;99510.09;;;20.03;38.25
75767;BME280;64378;55.596;13.014;2022-12-29T07:37:45;99510.63;;;20.05;38.28
75767;BME280;64378;55.596;13.014;2022-12-29T07:40:11;99496.41;;;20.03;38.31
75767;BME280;64378;55.596;13.014;2022-12-29T07:42:36;99495.59;;;20.02;38.21
75767;BME280;64378;55.596;13.014;2022-12-29T07:45:01;99497.22;;;20.03;38.27
75767;BME280;64378;55.596;13.014;2022-12-29T07:47:27;99490.13;;;20.02;38.19
75767;BME280;64378;55.596;13.014;2022-12-29T07:49:52;99496.41;;;20.03;38.17
75767;BME280;64378;55.596;13.014;2022-12-29T07:52:18;99505.75;;;20.02;38.36
75767;BME280;64378;55.596;13.014;2022-12-29T07:54:43;99514.75;;;20.02;38.44
75767;BME280;64378;55.596;13.014;2022-12-29T07:57:09;99499.16;;;20.03;38.32
75767;BME280;64378;55.596;13.014;2022-12-29T07:59:34;99508.47;;;20.02;38.46
75767;BME280;64378;55.596;13.014;2022-12-29T08:02:00;99510.09;;;20.03;38.09
75767;BME280;64378;55.596;13.014;2022-12-29T08:04:25;99511.75;;;20.04;38.30
75767;BME280;64378;55.596;13.014;2022-12-29T08:06:50;99509.00;;;20.04;38.42
75767;BME280;64378;55.596;13.014;2022-12-29T08:09:16;99519.97;;;20.04;38.40
75767;BME280;64378;55.596;13.014;2022-12-29T08:11:41;99508.16;;;20.03;38.49
75767;BME280;64378;55.596;13.014;2022-12-29T08:14:07;99513.66;;;20.03;38.36
75767;BME280;64378;55.596;13.014;2022-12-29T08:16:33;99511.75;;;20.04;38.41
75767;BME280;64378;55.596;13.014;2022-12-29T08:18:58;99512.84;;;20.03;38.45
75767;BME280;64378;55.596;13.014;2022-12-29T08:21:24;99503.00;;;20.02;38.64
75767;BME280;64378;55.596;13.014;2022-12-29T08:23:49;99509.28;;;20.02;38.39
75767;BME280;64378;55.596;13.014;2022-12-29T08:26:15;99510.91;;;20.03;38.50
75767;BME280;64378;55.596;13.014;2022-12-29T08:28:40;99514.47;;;20.04;38.15
75767;BME280;64378;55.596;13.014;2022-12-29T08:31:05;99520.22;;;20.02;38.53
75767;BME280;64378;55.596;13.014;2022-12-29T08:33:31;99512.84;;;20.03;38.29
75767;BME280;64378;55.596;13.014;2022-12-29T08:36:01;99505.75;;;20.02;38.38
75767;BME280;64378;55.596;13.014;2022-12-29T08:38:27;99499.16;;;20.03;38.32
75767;BME280;64378;55.596;13.014;2022-12-29T08:40:53;99490.94;;;20.03;38.54
75767;BME280;64378;55.596;13.014;2022-12-29T08:43:19;99503.53;;;20.04;38.54
75767;BME280;64378;55.596;13.014;2022-12-29T08:45:44;99503.81;;;20.02;38.57
75767;BME280;64378;55.596;13.014;2022-12-29T08:48:10;99484.34;;;20.04;38.50
75767;BME280;64378;55.596;13.014;2022-12-29T08:50:35;99486.25;;;20.03;38.51
75767;BME280;64378;55.596;13.014;2022-12-29T08:53:00;99486.25;;;20.03;38.50
75767;BME280;64378;55.596;13.014;2022-12-29T08:55:26;99485.47;;;20.03;38.46
75767;BME280;64378;55.596;13.014;2022-12-29T08:57:51;99489.00;;;20.03;38.66
75767;BME280;64378;55.596;13.014;2022-12-29T09:00:17;99499.69;;;20.05;38.42
75767;BME280;64378;55.596;13.014;2022-12-29T09:02:43;99488.72;;;20.05;38.67
75767;BME280;64378;55.596;13.014;2022-12-29T09:05:08;99483.25;;;20.05;38.47
75767;BME280;64378;55.596;13.014;2022-12-29T09:07:34;99491.47;;;20.05;38.61
75767;BME280;64378;55.596;13.014;2022-12-29T09:10:00;99486.00;;;20.05;38.67
75767;BME280;64378;55.596;13.014;2022-12-29T09:12:25;99491.47;;;20.05;38.68
75767;BME280;64378;55.596;13.014;2022-12-29T09:14:51;99487.09;;;20.04;38.54
75767;BME280;64378;55.596;13.014;2022-12-29T09:17:16;99481.31;;;20.05;38.48
75767;BME280;64378;55.596;13.014;2022-12-29T09:20:00;99486.00;;;20.05;38.48
75767;BME280;64378;55.596;13.014;2022-12-29T09:22:26;99492.56;;;20.04;38.50
75767;BME280;64378;55.596;13.014;2022-12-29T09:24:51;99495.31;;;20.04;38.53
75767;BME280;64378;55.596;13.014;2022-12-29T09:27:16;99488.72;;;20.05;38.59
75767;BME280;64378;55.596;13.014;2022-12-29T09:29:42;99499.69;;;20.05;38.75
75767;BME280;64378;55.596;13.014;2022-12-29T09:32:09;99494.19;;;20.05;38.55
75767;BME280;64378;55.596;13.014;2022-12-29T09:34:34;99489.84;;;20.04;38.75
75767;BME280;64378;55.596;13.014;2022-12-29T09:36:59;99497.75;;;20.05;38.75
75767;BME280;64378;55.596;13.014;2022-12-29T09:39:25;99494.19;;;20.05;38.65
75767;BME280;64378;55.596;13.014;2022-12-29T09:44:46;99501.84;;;20.08;38.84
75767;BME280;64378;55.596;13.014;2022-12-29T09:47:14;99507.59;;;20.06;38.59
75767;BME280;64378;55.596;13.014;2022-12-29T09:49:58;99501.31;;;20.06;38.50
75767;BME280;64378;55.596;13.014;2022-12-29T09:52:30;99507.59;;;20.06;38.76
75767;BME280;64378;55.596;13.014;2022-12-29T09:55:05;99497.75;;;20.05;38.71
75767;BME280;64378;55.596;13.014;2022-12-29T10:00:24;99511.16;;;20.07;38.72
75767;BME280;64378;55.596;13.014;2022-12-29T10:02:59;99511.16;;;20.07;38.56
75767;BME280;64378;55.596;13.014;2022-12-29T10:05:39;99519.06;;;20.08;38.89
75767;BME280;64378;55.596;13.014;2022-12-29T10:11:07;99500.72;;;20.09;38.76
75767;BME280;64378;55.596;13.014;2022-12-29T10:13:50;99496.06;;;20.09;38.77
75767;BME280;64378;55.596;13.014;2022-12-29T10:25:19;99493.31;;;20.09;38.96
75767;BME280;64378;55.596;13.014;2022-12-29T10:27:48;99498.00;;;20.09;38.85
75767;BME280;64378;55.596;13.014;2022-12-29T10:30:14;99498.53;;;20.11;38.76
75767;BME280;64378;55.596;13.014;2022-12-29T10:32:48;99490.81;;;20.13;38.98
75767;BME280;64378;55.596;13.014;2022-12-29T10:35:53;99500.63;;;20.14;38.65
75767;BME280;64378;55.596;13.014;2022-12-29T10:41:08;99501.47;;;20.14;38.71
75767;BME280;64378;55.596;13.014;2022-12-29T10:43:47;99498.44;;;20.16;38.71
75767;BME280;64378;55.596;13.014;2022-12-29T10:46:17;99500.88;;;20.17;38.72
75767;BME280;64378;55.596;13.014;2022-12-29T10:48:43;99486.09;;;20.18;38.64
75767;BME280;64378;55.596;13.014;2022-12-29T10:51:18;99510.72;;;20.18;38.69
75767;BME280;64378;55.596;13.014;2022-12-29T10:53:48;99504.16;;;20.19;38.56
75767;BME280;64378;55.596;13.014;2022-12-29T10:58:51;99492.31;;;20.24;38.54
75767;BME280;64378;55.596;13.014;2022-12-29T11:01:20;99492.81;;;20.26;38.62
75767;BME280;64378;55.596;13.014;2022-12-29T11:06:21;99490.03;;;20.31;38.58
75767;BME280;64378;55.596;13.014;2022-12-29T11:08:58;99486.16;;;20.32;38.29
75767;BME280;64378;55.596;13.014;2022-12-29T11:11:33;99499.81;;;20.37;38.54
75767;BME280;64378;55.596;13.014;2022-12-29T11:14:11;99494.31;;;20.37;38.50
75767;BME280;64378;55.596;13.014;2022-12-29T11:16:38;99487.94;;;20.41;38.37
75767;BME280;64378;55.596;13.014;2022-12-29T11:19:03;99485.72;;;20.43;38.31
75767;BME280;64378;55.596;13.014;2022-12-29T11:21:36;99485.41;;;20.45;38.27
75767;BME280;64378;55.596;13.014;2022-12-29T11:24:27;99486.53;;;20.44;38.71
75767;BME280;64378;55.596;13.014;2022-12-29T11:26:55;99493.06;;;20.48;38.33
75767;BME280;64378;55.596;13.014;2022-12-29T11:29:41;99488.94;;;20.50;38.39
75767;BME280;64378;55.596;13.014;2022-12-29T11:32:20;99491.66;;;20.50;38.39
75767;BME280;64378;55.596;13.014;2022-12-29T11:34:46;99486.19;;;20.50;38.50
75767;BME280;64378;55.596;13.014;2022-12-29T11:39:43;99492.69;;;20.54;38.28
75767;BME280;64378;55.596;13.014;2022-12-29T11:42:15;99491.28;;;20.57;38.43
75767;BME280;64378;55.596;13.014;2022-12-29T11:44:46;99483.88;;;20.57;38.31
75767;BME280;64378;55.596;13.014;2022-12-29T11:47:21;99487.94;;;20.60;38.15
75767;BME280;64378;55.596;13.014;2022-12-29T11:49:50;99484.91;;;20.61;38.23
75767;BME280;64378;55.596;13.014;2022-12-29T11:52:22;99482.69;;;20.63;38.33
75767;BME280;64378;55.596;13.014;2022-12-29T11:54:48;99483.50;;;20.64;38.18
75767;BME280;64378;55.596;13.014;2022-12-29T11:57:16;99485.94;;;20.65;38.33
75767;BME280;64378;55.596;13.014;2022-12-29T11:59:49;99484.00;;;20.66;38.27
75767;BME280;64378;55.596;13.014;2022-12-29T12:04:40;99485.94;;;20.65;38.24
75767;BME280;64378;55.596;13.014;2022-12-29T12:07:16;99484.84;;;20.66;38.28
75767;BME280;64378;55.596;13.014;2022-12-29T12:09:47;99489.47;;;20.66;38.14
75767;BME280;64378;55.596;13.014;2022-12-29T12:12:29;99481.56;;;20.64;38.15
75767;BME280;64378;55.596;13.014;2022-12-29T12:14:58;99482.38;;;20.65;38.14
75767;BME280;64378;55.596;13.014;2022-12-29T12:20:17;99492.53;;;20.64;38.11
75767;BME280;64378;55.596;13.014;2022-12-29T12:23:06;99494.75;;;20.62;38.15
75767;BME280;64378;55.596;13.014;2022-12-29T12:25:43;99492.31;;;20.61;38.08
75767;BME280;64378;55.596;13.014;2022-12-29T12:28:36;99492.84;;;20.63;38.03
75767;BME280;64378;55.596;13.014;2022-12-29T12:31:05;99495.88;;;20.61;38.14
75767;BME280;64378;55.596;13.014;2022-12-29T12:33:36;99499.44;;;20.62;38.04
75767;BME280;64378;55.596;13.014;2022-12-29T12:42:21;99496.19;;;20.60;38.09
75767;BME280;64378;55.596;13.014;2022-12-29T12:50:28;99502.78;;;20.59;38.19
75767;BME280;64378;55.596;13.014;2022-12-29T12:53:03;99512.09;;;20.58;38.12
75767;BME280;64378;55.596;13.014;2022-12-29T12:56:01;99513.22;;;20.57;38.09
75767;BME280;64378;55.596;13.014;2022-12-29T13:06:51;99516.81;;;20.52;38.11
75767;BME280;64378;55.596;13.014;2022-12-29T13:17:39;99525.94;;;20.48;38.29
75767;BME280;64378;55.596;13.014;2022-12-29T13:26:26;99538.31;;;20.45;38.16
75767;BME280;64378;55.596;13.014;2022-12-29T13:33:57;99544.38;;;20.42;38.35
75767;BME280;64378;55.596;13.014;2022-12-29T13:36:32;99546.28;;;20.42;38.33
75767;BME280;64378;55.596;13.014;2022-12-29T13:41:51;99543.03;;;20.40;38.27
75767;BME280;64378;55.596;13.014;2022-12-29T13:44:22;99564.16;;;20.39;38.34
75767;BME280;64378;55.596;13.014;2022-12-29T13:46:49;99554.28;;;20.38;38.18
75767;BME280;64378;55.596;13.014;2022-12-29T13:49:22;99556.22;;;20.38;38.25
75767;BME280;64378;55.596;13.014;2022-12-29T13:52:01;99551.84;;;20.37;38.38
75767;BME280;64378;55.596;13.014;2022-12-29T13:54:38;99550.22;;;20.36;38.40
75767;BME280;64378;55.596;13.014;2022-12-29T14:00:04;99550.50;;;20.34;38.19
75767;BME280;64378;55.596;13.014;2022-12-29T14:07:49;99562.88;;;20.32;38.11
75767;BME280;64378;55.596;13.014;2022-12-29T14:10:36;99566.41;;;20.32;38.23
75767;BME280;64378;55.596;13.014;2022-12-29T14:15:31;99573.84;;;20.32;38.41
75767;BME280;64378;55.596;13.014;2022-12-29T14:20:36;99567.00;;;20.29;38.32
75767;BME280;64378;55.596;13.014;2022-12-29T14:28:38;99569.75;;;20.29;38.17
75767;BME280;64378;55.596;13.014;2022-12-29T14:36:58;99565.69;;;20.27;38.29
75767;BME280;64378;55.596;13.014;2022-12-29T14:42:05;99579.38;;;20.27;38.38
75767;BME280;64378;55.596;13.014;2022-12-29T14:44:31;99575.53;;;20.28;38.17
75767;BME280;64378;55.596;13.014;2022-12-29T14:47:00;99581.00;;;20.28;38.30
75767;BME280;64378;55.596;13.014;2022-12-29T14:49:31;99554.03;;;20.16;38.38
75767;BME280;64378;55.596;13.014;2022-12-29T14:52:21;99579.38;;;20.27;38.36
75767;BME280;64378;55.596;13.014;2022-12-29T14:57:27;99589.22;;;20.28;38.21
75767;BME280;64378;55.596;13.014;2022-12-29T15:02:36;99593.88;;;20.27;38.19
75767;BME280;64378;55.596;13.014;2022-12-29T15:05:05;99591.13;;;20.27;38.15
75767;BME280;64378;55.596;13.014;2022-12-29T15:07:32;99590.03;;;20.28;38.27
75767;BME280;64378;55.596;13.014;2022-12-29T15:10:04;99590.63;;;20.25;38.34
75767;BME280;64378;55.596;13.014;2022-12-29T15:12:41;99598.84;;;20.25;38.44
75767;BME280;64378;55.596;13.014;2022-12-29T15:15:20;99593.06;;;20.27;38.31
75767;BME280;64378;55.596;13.014;2022-12-29T15:17:46;99595.81;;;20.27;38.14